Terminal Aerodrome Forecast
Issued by NWS

Home | Current Version | Previous Version | Text Only | Print | Product List | Glossary On
Versions: 1 2 3 4 5 6 7 8 9 10 11 12 13 14 15 16 17 18 19 20 21 22 23 24 25 26 27 28 29 30 31 32 33 34 35 36
000
FTUS45 KGJT 231146
TAFASE
TAF
KASE 231146Z 2312/2412 21008KT P6SM VCSH BKN050 OVC080
     FM231400 17008G18KT P6SM -SHRA BKN050 OVC080
     FM232000 21008G18KT P6SM -SHRA VCTS OVC060CB
      TEMPO 2320/2324 VRB12G25KT 5SM -TSRA OVC040CB
     FM240000 35010KT 6SM -SHRA OVC045
     FM240300 35010KT 3SM -SHRASN OVC015
     FM240500 35010G18KT 2SM -SN OVC010=

USA.gov is the U.S. government's official web portal to all federal, state and local government web resources and services.